sensor_id;sensor_type;location;lat;lon;timestamp;pressure;altitude;pressure_sealevel;temperature;humidity
7018;BME280;3549;42.162;24.726;2023-04-23T00:01:55;47732.44;;;-141.97;79.52
7018;BME280;3549;42.162;24.726;2023-04-23T00:04:25;47745.88;;;-141.97;80.05
7018;BME280;3549;42.162;24.726;2023-04-23T00:06:51;47738.19;;;-141.97;80.22
7018;BME280;3549;42.162;24.726;2023-04-23T00:09:17;47694.00;;;-141.97;80.47
7018;BME280;3549;42.162;24.726;2023-04-23T00:11:43;47736.28;;;-141.97;80.68
7018;BME280;3549;42.162;24.726;2023-04-23T00:14:09;47732.44;;;-141.97;80.42
7018;BME280;3549;42.162;24.726;2023-04-23T00:16:35;47694.00;;;-141.97;80.71
7018;BME280;3549;42.162;24.726;2023-04-23T00:19:01;47728.59;;;-141.97;81.54
7018;BME280;3549;42.162;24.726;2023-04-23T00:21:26;47730.50;;;-141.97;82.15
7018;BME280;3549;42.162;24.726;2023-04-23T00:23:52;47765.09;;;-141.97;81.86
7018;BME280;3549;42.162;24.726;2023-04-23T00:26:18;47711.28;;;-141.97;81.69
7018;BME280;3549;42.162;24.726;2023-04-23T00:28:43;47676.69;;;-141.97;81.69
7018;BME280;3549;42.162;24.726;2023-04-23T00:31:09;47730.50;;;-141.97;81.82
7018;BME280;3549;42.162;24.726;2023-04-23T00:33:34;47684.38;;;-141.97;81.80
7018;BME280;3549;42.162;24.726;2023-04-23T00:36:00;47742.03;;;-141.97;82.18
7018;BME280;3549;42.162;24.726;2023-04-23T00:38:26;47699.75;;;-141.97;82.22
7018;BME280;3549;42.162;24.726;2023-04-23T00:40:51;47742.03;;;-141.97;82.65
7018;BME280;3549;42.162;24.726;2023-04-23T00:43:17;47763.19;;;-141.97;82.10
7018;BME280;3549;42.162;24.726;2023-04-23T00:45:43;47749.72;;;-141.97;82.54
7018;BME280;3549;42.162;24.726;2023-04-23T00:48:10;47734.34;;;-141.97;83.39
7018;BME280;3549;42.162;24.726;2023-04-23T00:50:35;47711.28;;;-141.97;85.18
7018;BME280;3549;42.162;24.726;2023-04-23T00:53:01;47736.28;;;-141.97;85.53
7018;BME280;3549;42.162;24.726;2023-04-23T00:55:27;47711.28;;;-141.97;85.99
7018;BME280;3549;42.162;24.726;2023-04-23T00:57:52;47751.66;;;-141.97;86.06
7018;BME280;3549;42.162;24.726;2023-04-23T01:00:19;47695.91;;;-141.97;85.76
7018;BME280;3549;42.162;24.726;2023-04-23T01:02:46;47738.19;;;-141.97;84.64
7018;BME280;3549;42.162;24.726;2023-04-23T01:05:13;47720.91;;;-141.97;82.05
7018;BME280;3549;42.162;24.726;2023-04-23T01:07:41;47724.75;;;-141.97;79.90
7018;BME280;3549;42.162;24.726;2023-04-23T01:10:08;47715.13;;;-141.97;77.44
7018;BME280;3549;42.162;24.726;2023-04-23T01:12:34;47715.13;;;-141.97;75.57
7018;BME280;3549;42.162;24.726;2023-04-23T01:14:59;47726.66;;;-141.97;74.71
7018;BME280;3549;42.162;24.726;2023-04-23T01:17:25;47734.34;;;-141.97;73.62
7018;BME280;3549;42.162;24.726;2023-04-23T01:19:51;47684.38;;;-141.97;73.28
7018;BME280;3549;42.162;24.726;2023-04-23T01:22:17;47718.97;;;-141.97;73.28
7018;BME280;3549;42.162;24.726;2023-04-23T01:24:42;47734.34;;;-141.97;72.34
7018;BME280;3549;42.162;24.726;2023-04-23T01:27:08;47695.91;;;-141.97;72.50
7018;BME280;3549;42.162;24.726;2023-04-23T01:29:34;47684.38;;;-141.97;72.46
7018;BME280;3549;42.162;24.726;2023-04-23T01:32:01;47718.97;;;-141.97;72.41
7018;BME280;3549;42.162;24.726;2023-04-23T01:34:28;47726.66;;;-141.97;72.38
7018;BME280;3549;42.162;24.726;2023-04-23T01:36:54;47728.59;;;-141.97;72.66
7018;BME280;3549;42.162;24.726;2023-04-23T01:39:21;47713.22;;;-141.97;73.33
7018;BME280;3549;42.162;24.726;2023-04-23T01:41:47;47730.50;;;-141.97;73.46
7018;BME280;3549;42.162;24.726;2023-04-23T01:44:13;47738.19;;;-141.97;74.18
7018;BME280;3549;42.162;24.726;2023-04-23T01:46:38;47676.69;;;-141.97;74.62
7018;BME280;3549;42.162;24.726;2023-04-23T01:49:03;47726.66;;;-141.97;74.79
7018;BME280;3549;42.162;24.726;2023-04-23T01:51:29;47749.72;;;-141.97;75.21
7018;BME280;3549;42.162;24.726;2023-04-23T01:53:54;47801.63;;;-141.97;75.28
7018;BME280;3549;42.162;24.726;2023-04-23T01:56:24;47701.69;;;-141.97;75.19
7018;BME280;3549;42.162;24.726;2023-04-23T01:58:51;47736.28;;;-141.97;75.38
7018;BME280;3549;42.162;24.726;2023-04-23T02:01:16;47713.22;;;-141.97;75.25
7018;BME280;3549;42.162;24.726;2023-04-23T02:03:42;47734.34;;;-141.97;75.19
7018;BME280;3549;42.162;24.726;2023-04-23T02:06:08;47730.50;;;-141.97;75.44
7018;BME280;3549;42.162;24.726;2023-04-23T02:08:34;47724.75;;;-141.97;75.60
7018;BME280;3549;42.162;24.726;2023-04-23T02:11:00;47730.50;;;-141.97;75.87
7018;BME280;3549;42.162;24.726;2023-04-23T02:13:25;47749.72;;;-141.97;76.08
7018;BME280;3549;42.162;24.726;2023-04-23T02:15:51;47711.28;;;-141.97;76.34
7018;BME280;3549;42.162;24.726;2023-04-23T02:18:16;47759.34;;;-141.97;76.00
7018;BME280;3549;42.162;24.726;2023-04-23T02:20:41;47795.88;;;-141.97;75.67
7018;BME280;3549;42.162;24.726;2023-04-23T02:23:08;47688.22;;;-141.97;75.45
7018;BME280;3549;42.162;24.726;2023-04-23T02:25:34;47667.06;;;-141.97;75.44
7018;BME280;3549;42.162;24.726;2023-04-23T02:28:02;47722.81;;;-141.97;75.62
7018;BME280;3549;42.162;24.726;2023-04-23T02:30:30;47830.47;;;-141.97;75.90
7018;BME280;3549;42.162;24.726;2023-04-23T02:32:56;47722.81;;;-141.97;76.00
7018;BME280;3549;42.162;24.726;2023-04-23T02:35:21;47676.69;;;-141.97;75.35
7018;BME280;3549;42.162;24.726;2023-04-23T02:37:48;47715.13;;;-141.97;75.54
7018;BME280;3549;42.162;24.726;2023-04-23T02:40:13;47857.38;;;-141.97;75.85
7018;BME280;3549;42.162;24.726;2023-04-23T02:42:38;47709.38;;;-141.97;76.25
7018;BME280;3549;42.162;24.726;2023-04-23T02:45:04;47715.13;;;-141.97;75.90
7018;BME280;3549;42.162;24.726;2023-04-23T02:47:30;47728.59;;;-141.97;76.31
7018;BME280;3549;42.162;24.726;2023-04-23T02:49:56;47715.13;;;-141.97;76.09
7018;BME280;3549;42.162;24.726;2023-04-23T02:52:22;47749.72;;;-141.97;75.96
7018;BME280;3549;42.162;24.726;2023-04-23T02:54:47;47768.94;;;-141.97;75.47
7018;BME280;3549;42.162;24.726;2023-04-23T02:57:13;47699.75;;;-141.97;75.03
7018;BME280;3549;42.162;24.726;2023-04-23T02:59:40;47715.13;;;-141.97;75.27
7018;BME280;3549;42.162;24.726;2023-04-23T03:02:06;47718.97;;;-141.97;75.61
7018;BME280;3549;42.162;24.726;2023-04-23T03:04:31;47757.41;;;-141.97;75.68
7018;BME280;3549;42.162;24.726;2023-04-23T03:06:57;47718.97;;;-141.97;75.50
7018;BME280;3549;42.162;24.726;2023-04-23T03:09:22;47751.66;;;-141.97;76.16
7018;BME280;3549;42.162;24.726;2023-04-23T03:11:48;47642.09;;;-141.97;76.26
7018;BME280;3549;42.162;24.726;2023-04-23T03:14:13;47730.50;;;-141.97;76.91
7018;BME280;3549;42.162;24.726;2023-04-23T03:16:38;47699.75;;;-141.97;77.09
7018;BME280;3549;42.162;24.726;2023-04-23T03:19:04;47692.06;;;-141.97;76.79
7018;BME280;3549;42.162;24.726;2023-04-23T03:21:29;47680.53;;;-141.97;76.77
7018;BME280;3549;42.162;24.726;2023-04-23T03:23:55;47709.38;;;-141.97;76.69
7018;BME280;3549;42.162;24.726;2023-04-23T03:26:21;47684.38;;;-141.97;76.45
7018;BME280;3549;42.162;24.726;2023-04-23T03:28:46;47707.44;;;-141.97;75.57
7018;BME280;3549;42.162;24.726;2023-04-23T03:31:11;47680.53;;;-141.97;75.13
7018;BME280;3549;42.162;24.726;2023-04-23T03:33:37;47722.81;;;-141.97;75.65
7018;BME280;3549;42.162;24.726;2023-04-23T03:36:02;47722.81;;;-141.97;76.69
7018;BME280;3549;42.162;24.726;2023-04-23T03:38:28;47726.66;;;-141.97;78.00
7018;BME280;3549;42.162;24.726;2023-04-23T03:40:53;47738.19;;;-141.97;78.27
7018;BME280;3549;42.162;24.726;2023-04-23T03:43:19;47722.81;;;-141.97;79.50
7018;BME280;3549;42.162;24.726;2023-04-23T03:45:44;47690.16;;;-141.97;80.12
7018;BME280;3549;42.162;24.726;2023-04-23T03:48:10;47734.34;;;-141.97;80.76
7018;BME280;3549;42.162;24.726;2023-04-23T03:50:35;47709.38;;;-141.97;80.89
7018;BME280;3549;42.162;24.726;2023-04-23T03:53:04;47695.91;;;-141.97;81.32
7018;BME280;3549;42.162;24.726;2023-04-23T03:55:30;47761.25;;;-141.97;81.70
7018;BME280;3549;42.162;24.726;2023-04-23T03:57:57;47734.34;;;-141.97;82.04
7018;BME280;3549;42.162;24.726;2023-04-23T04:00:24;47757.41;;;-141.97;82.15
7018;BME280;3549;42.162;24.726;2023-04-23T04:02:49;47722.81;;;-141.97;82.24
7018;BME280;3549;42.162;24.726;2023-04-23T04:05:15;47745.88;;;-141.97;81.72
7018;BME280;3549;42.162;24.726;2023-04-23T04:07:40;47743.97;;;-141.97;81.07
7018;BME280;3549;42.162;24.726;2023-04-23T04:10:06;47795.88;;;-141.97;80.40
7018;BME280;3549;42.162;24.726;2023-04-23T04:12:34;47715.13;;;-141.97;80.27
7018;BME280;3549;42.162;24.726;2023-04-23T04:15:01;47726.66;;;-141.97;79.70
7018;BME280;3549;42.162;24.726;2023-04-23T04:17:27;47726.66;;;-141.97;79.08
7018;BME280;3549;42.162;24.726;2023-04-23T04:19:53;47699.75;;;-141.97;78.46
7018;BME280;3549;42.162;24.726;2023-04-23T04:22:18;47757.41;;;-141.97;77.96
7018;BME280;3549;42.162;24.726;2023-04-23T04:24:43;47717.06;;;-141.97;77.32
7018;BME280;3549;42.162;24.726;2023-04-23T04:27:11;47734.34;;;-141.97;77.25
7018;BME280;3549;42.162;24.726;2023-04-23T04:29:37;47701.69;;;-141.97;76.58
7018;BME280;3549;42.162;24.726;2023-04-23T04:32:06;47745.88;;;-141.97;76.63
7018;BME280;3549;42.162;24.726;2023-04-23T04:34:32;47715.13;;;-141.97;75.66
7018;BME280;3549;42.162;24.726;2023-04-23T04:36:57;47678.63;;;-141.97;75.40
7018;BME280;3549;42.162;24.726;2023-04-23T04:39:23;47757.41;;;-141.97;74.36
7018;BME280;3549;42.162;24.726;2023-04-23T04:41:48;47745.88;;;-141.97;73.22
7018;BME280;3549;42.162;24.726;2023-04-23T04:44:14;47742.03;;;-141.97;72.69
7018;BME280;3549;42.162;24.726;2023-04-23T04:46:40;47732.44;;;-141.97;72.09
7018;BME280;3549;42.162;24.726;2023-04-23T04:49:07;47757.41;;;-141.97;71.90
7018;BME280;3549;42.162;24.726;2023-04-23T04:51:33;47742.03;;;-141.97;72.23
7018;BME280;3549;42.162;24.726;2023-04-23T04:53:59;47722.81;;;-141.97;72.38
7018;BME280;3549;42.162;24.726;2023-04-23T04:56:24;47715.13;;;-141.97;71.54
7018;BME280;3549;42.162;24.726;2023-04-23T04:58:50;47738.19;;;-141.97;72.06
7018;BME280;3549;42.162;24.726;2023-04-23T05:01:16;47730.50;;;-141.97;72.21
7018;BME280;3549;42.162;24.726;2023-04-23T05:03:43;47742.03;;;-141.97;73.28
7018;BME280;3549;42.162;24.726;2023-04-23T05:06:08;47694.00;;;-141.97;73.22
7018;BME280;3549;42.162;24.726;2023-04-23T05:08:34;47722.81;;;-141.97;72.41
7018;BME280;3549;42.162;24.726;2023-04-23T05:11:00;47707.44;;;-141.97;71.11
7018;BME280;3549;42.162;24.726;2023-04-23T05:13:26;47742.03;;;-141.97;70.30
7018;BME280;3549;42.162;24.726;2023-04-23T05:15:51;47761.25;;;-141.97;69.76
7018;BME280;3549;42.162;24.726;2023-04-23T05:18:17;47686.31;;;-141.97;69.54
7018;BME280;3549;42.162;24.726;2023-04-23T05:20:43;47709.38;;;-141.97;69.17
7018;BME280;3549;42.162;24.726;2023-04-23T05:23:08;47726.66;;;-141.97;69.34
7018;BME280;3549;42.162;24.726;2023-04-23T05:25:34;47717.06;;;-141.97;68.74
7018;BME280;3549;42.162;24.726;2023-04-23T05:27:59;47732.44;;;-141.97;68.36
7018;BME280;3549;42.162;24.726;2023-04-23T05:30:25;47749.72;;;-141.97;67.89
7018;BME280;3549;42.162;24.726;2023-04-23T05:32:51;47717.06;;;-141.97;66.63
7018;BME280;3549;42.162;24.726;2023-04-23T05:35:17;47726.66;;;-141.97;65.82
7018;BME280;3549;42.162;24.726;2023-04-23T05:37:42;47726.66;;;-141.97;64.37
7018;BME280;3549;42.162;24.726;2023-04-23T05:40:08;47726.66;;;-141.97;64.25
7018;BME280;3549;42.162;24.726;2023-04-23T05:42:34;47678.63;;;-141.97;62.67
7018;BME280;3549;42.162;24.726;2023-04-23T05:45:00;47811.25;;;-141.97;62.69
7018;BME280;3549;42.162;24.726;2023-04-23T05:47:25;47663.22;;;-141.97;62.78
7018;BME280;3549;42.162;24.726;2023-04-23T05:49:51;47707.44;;;-141.97;62.55
7018;BME280;3549;42.162;24.726;2023-04-23T05:52:17;47713.22;;;-141.97;62.91
7018;BME280;3549;42.162;24.726;2023-04-23T05:54:43;47695.91;;;-141.97;61.77
7018;BME280;3549;42.162;24.726;2023-04-23T05:57:09;47718.97;;;-141.97;60.77
7018;BME280;3549;42.162;24.726;2023-04-23T05:59:35;47684.38;;;-141.97;59.46
7018;BME280;3549;42.162;24.726;2023-04-23T06:02:01;47724.75;;;-141.97;59.57
7018;BME280;3549;42.162;24.726;2023-04-23T06:04:26;47682.47;;;-141.97;59.57
7018;BME280;3549;42.162;24.726;2023-04-23T06:06:51;47730.50;;;-141.97;59.34
7018;BME280;3549;42.162;24.726;2023-04-23T06:09:17;47661.31;;;-141.97;59.83
7018;BME280;3549;42.162;24.726;2023-04-23T06:11:42;47726.66;;;-141.97;60.44
7018;BME280;3549;42.162;24.726;2023-04-23T06:14:07;47707.44;;;-141.97;60.58
7018;BME280;3549;42.162;24.726;2023-04-23T06:16:33;47834.31;;;-141.97;60.67
7018;BME280;3549;42.162;24.726;2023-04-23T06:18:58;47684.38;;;-141.97;60.36
7018;BME280;3549;42.162;24.726;2023-04-23T06:21:24;47728.59;;;-141.97;61.53
7018;BME280;3549;42.162;24.726;2023-04-23T06:23:51;47726.66;;;-141.97;64.15
7018;BME280;3549;42.162;24.726;2023-04-23T06:26:16;47749.72;;;-141.97;64.57
7018;BME280;3549;42.162;24.726;2023-04-23T06:28:44;47730.50;;;-141.97;66.39
7018;BME280;3549;42.162;24.726;2023-04-23T06:31:11;47818.94;;;-141.97;66.41
7018;BME280;3549;42.162;24.726;2023-04-23T06:33:36;47734.34;;;-141.97;65.55
7018;BME280;3549;42.162;24.726;2023-04-23T06:36:03;47726.66;;;-141.97;65.11
7018;BME280;3549;42.162;24.726;2023-04-23T06:38:28;47724.75;;;-141.97;64.41
7018;BME280;3549;42.162;24.726;2023-04-23T06:40:54;47717.06;;;-141.97;65.27
7018;BME280;3549;42.162;24.726;2023-04-23T06:43:20;47820.84;;;-141.97;65.05
7018;BME280;3549;42.162;24.726;2023-04-23T06:45:45;47692.06;;;-141.97;63.59
7018;BME280;3549;42.162;24.726;2023-04-23T06:48:11;47709.38;;;-141.97;62.17
7018;BME280;3549;42.162;24.726;2023-04-23T06:50:36;47703.59;;;-141.97;62.19
7018;BME280;3549;42.162;24.726;2023-04-23T06:53:01;47722.81;;;-141.97;60.89
7018;BME280;3549;42.162;24.726;2023-04-23T06:55:27;47732.44;;;-141.97;59.96
7018;BME280;3549;42.162;24.726;2023-04-23T06:57:53;47707.44;;;-141.97;60.09
7018;BME280;3549;42.162;24.726;2023-04-23T07:00:20;47815.09;;;-141.97;61.91
7018;BME280;3549;42.162;24.726;2023-04-23T07:02:46;47888.13;;;-141.97;60.03
7018;BME280;3549;42.162;24.726;2023-04-23T07:05:11;47638.25;;;-141.97;59.25
7018;BME280;3549;42.162;24.726;2023-04-23T07:07:37;47732.44;;;-141.97;58.87
7018;BME280;3549;42.162;24.726;2023-04-23T07:10:06;47711.28;;;-141.97;57.19
7018;BME280;3549;42.162;24.726;2023-04-23T07:12:31;47636.31;;;-141.97;56.99
7018;BME280;3549;42.162;24.726;2023-04-23T07:14:57;47699.75;;;-141.97;59.73
7018;BME280;3549;42.162;24.726;2023-04-23T07:17:22;47734.34;;;-141.97;59.26
7018;BME280;3549;42.162;24.726;2023-04-23T07:19:48;47694.00;;;-141.97;58.39
7018;BME280;3549;42.162;24.726;2023-04-23T07:22:13;47692.06;;;-141.97;57.17
7018;BME280;3549;42.162;24.726;2023-04-23T07:24:39;47678.63;;;-141.97;57.43
7018;BME280;3549;42.162;24.726;2023-04-23T07:27:05;47703.59;;;-141.97;56.65
7018;BME280;3549;42.162;24.726;2023-04-23T07:29:31;47688.22;;;-141.97;55.45
7018;BME280;3549;42.162;24.726;2023-04-23T07:31:57;47676.69;;;-141.97;57.68
7018;BME280;3549;42.162;24.726;2023-04-23T07:34:22;47861.22;;;-141.97;59.60
7018;BME280;3549;42.162;24.726;2023-04-23T07:36:47;47611.34;;;-141.97;60.18
7018;BME280;3549;42.162;24.726;2023-04-23T07:39:13;47709.38;;;-141.97;61.46
7018;BME280;3549;42.162;24.726;2023-04-23T07:41:38;47695.91;;;-141.97;60.26
7018;BME280;3549;42.162;24.726;2023-04-23T07:44:04;47795.88;;;-141.97;59.40
7018;BME280;3549;42.162;24.726;2023-04-23T07:46:29;47699.75;;;-141.97;58.50
7018;BME280;3549;42.162;24.726;2023-04-23T07:48:55;47672.84;;;-141.97;58.50
7018;BME280;3549;42.162;24.726;2023-04-23T07:51:20;47720.91;;;-141.97;59.31
7018;BME280;3549;42.162;24.726;2023-04-23T07:53:47;47632.47;;;-141.97;60.14
7018;BME280;3549;42.162;24.726;2023-04-23T07:56:15;47653.63;;;-141.97;59.97
7018;BME280;3549;42.162;24.726;2023-04-23T07:58:41;47669.00;;;-141.97;58.33
7018;BME280;3549;42.162;24.726;2023-04-23T08:01:06;47647.84;;;-141.97;57.95
7018;BME280;3549;42.162;24.726;2023-04-23T08:03:32;47780.47;;;-141.97;56.71
7018;BME280;3549;42.162;24.726;2023-04-23T08:05:57;47669.00;;;-141.97;54.92
7018;BME280;3549;42.162;24.726;2023-04-23T08:08:23;47795.88;;;-141.97;54.23
7018;BME280;3549;42.162;24.726;2023-04-23T08:10:48;47705.53;;;-141.97;54.85
7018;BME280;3549;42.162;24.726;2023-04-23T08:13:14;47711.28;;;-141.97;53.74
7018;BME280;3549;42.162;24.726;2023-04-23T08:15:39;47655.53;;;-141.97;53.73
7018;BME280;3549;42.162;24.726;2023-04-23T08:18:05;47647.84;;;-141.97;53.73
7018;BME280;3549;42.162;24.726;2023-04-23T08:20:30;47638.25;;;-141.97;54.86
7018;BME280;3549;42.162;24.726;2023-04-23T08:22:56;47669.00;;;-141.97;53.66
7018;BME280;3549;42.162;24.726;2023-04-23T08:25:22;47690.16;;;-141.97;52.47
7018;BME280;3549;42.162;24.726;2023-04-23T08:27:48;47615.19;;;-141.97;52.45
7018;BME280;3549;42.162;24.726;2023-04-23T08:30:14;47680.53;;;-141.97;52.46
7018;BME280;3549;42.162;24.726;2023-04-23T08:32:39;47690.16;;;-141.97;53.04
7018;BME280;3549;42.162;24.726;2023-04-23T08:35:05;47657.47;;;-141.97;53.96
7018;BME280;3549;42.162;24.726;2023-04-23T08:37:32;47678.63;;;-141.97;52.95
7018;BME280;3549;42.162;24.726;2023-04-23T08:39:58;47659.38;;;-141.97;51.45
7018;BME280;3549;42.162;24.726;2023-04-23T08:42:36;47697.84;;;-141.97;51.76
7018;BME280;3549;42.162;24.726;2023-04-23T08:45:03;47663.22;;;-141.97;51.14
7018;BME280;3549;42.162;24.726;2023-04-23T08:47:29;47697.84;;;-141.97;51.65
7018;BME280;3549;42.162;24.726;2023-04-23T08:49:58;47657.47;;;-141.97;51.16
7018;BME280;3549;42.162;24.726;2023-04-23T08:52:25;47670.91;;;-141.97;51.34
7018;BME280;3549;42.162;24.726;2023-04-23T08:54:58;47649.78;;;-141.97;50.52
7018;BME280;3549;42.162;24.726;2023-04-23T08:57:25;47659.38;;;-141.97;49.94
7018;BME280;3549;42.162;24.726;2023-04-23T08:59:51;47686.31;;;-141.97;49.90
7018;BME280;3549;42.162;24.726;2023-04-23T09:02:18;47647.84;;;-141.97;48.90
7018;BME280;3549;42.162;24.726;2023-04-23T09:04:44;47678.63;;;-141.97;47.92
7018;BME280;3549;42.162;24.726;2023-04-23T09:07:11;47740.13;;;-141.97;46.73
7018;BME280;3549;42.162;24.726;2023-04-23T09:09:37;47686.31;;;-141.97;46.58
7018;BME280;3549;42.162;24.726;2023-04-23T09:12:04;47653.63;;;-141.97;45.83
7018;BME280;3549;42.162;24.726;2023-04-23T09:14:31;47644.00;;;-141.97;45.79
7018;BME280;3549;42.162;24.726;2023-04-23T09:16:56;47626.72;;;-141.97;46.24
7018;BME280;3549;42.162;24.726;2023-04-23T09:19:24;47651.69;;;-141.97;45.23
7018;BME280;3549;42.162;24.726;2023-04-23T09:21:52;47642.09;;;-141.97;44.80
7018;BME280;3549;42.162;24.726;2023-04-23T09:24:21;47713.22;;;-141.97;43.83
7018;BME280;3549;42.162;24.726;2023-04-23T09:26:48;47670.91;;;-141.97;44.10
7018;BME280;3549;42.162;24.726;2023-04-23T09:29:19;47651.69;;;-141.97;43.32
7018;BME280;3549;42.162;24.726;2023-04-23T09:31:46;47651.69;;;-141.97;43.10
7018;BME280;3549;42.162;24.726;2023-04-23T09:34:23;47647.84;;;-141.97;41.93
7018;BME280;3549;42.162;24.726;2023-04-23T09:36:50;47538.28;;;-141.97;41.03
7018;BME280;3549;42.162;24.726;2023-04-23T09:39:18;47622.88;;;-141.97;40.26
7018;BME280;3549;42.162;24.726;2023-04-23T09:41:44;47651.69;;;-141.97;40.08
7018;BME280;3549;42.162;24.726;2023-04-23T09:44:20;47559.44;;;-141.97;40.35
7018;BME280;3549;42.162;24.726;2023-04-23T09:46:48;47613.25;;;-141.97;40.28
7018;BME280;3549;42.162;24.726;2023-04-23T09:49:14;47599.81;;;-141.97;39.63
7018;BME280;3549;42.162;24.726;2023-04-23T09:54:17;47649.78;;;-141.97;38.77
7018;BME280;3549;42.162;24.726;2023-04-23T09:56:43;47626.72;;;-141.97;39.46
7018;BME280;3549;42.162;24.726;2023-04-23T10:01:44;47640.16;;;-141.97;40.30
7018;BME280;3549;42.162;24.726;2023-04-23T10:04:21;47615.19;;;-141.97;39.46
7018;BME280;3549;42.162;24.726;2023-04-23T10:06:52;47653.63;;;-141.97;38.85
7018;BME280;3549;42.162;24.726;2023-04-23T10:09:27;47588.28;;;-141.97;39.42
7018;BME280;3549;42.162;24.726;2023-04-23T10:11:55;47638.25;;;-141.97;39.30
7018;BME280;3549;42.162;24.726;2023-04-23T10:14:22;47601.72;;;-141.97;39.26
7018;BME280;3549;42.162;24.726;2023-04-23T10:16:56;47576.75;;;-141.97;39.35
7018;BME280;3549;42.162;24.726;2023-04-23T10:19:23;47740.13;;;-141.97;39.59
7018;BME280;3549;42.162;24.726;2023-04-23T10:21:55;47649.78;;;-141.97;39.42
7018;BME280;3549;42.162;24.726;2023-04-23T10:24:36;47636.31;;;-141.97;39.48
7018;BME280;3549;42.162;24.726;2023-04-23T10:27:04;47567.13;;;-141.97;39.23
7018;BME280;3549;42.162;24.726;2023-04-23T10:29:34;47736.28;;;-141.97;39.20
7018;BME280;3549;42.162;24.726;2023-04-23T10:32:05;47634.41;;;-141.97;39.55
7018;BME280;3549;42.162;24.726;2023-04-23T10:34:31;47607.50;;;-141.97;39.22
7018;BME280;3549;42.162;24.726;2023-04-23T10:36:59;47588.28;;;-141.97;38.86
7018;BME280;3549;42.162;24.726;2023-04-23T10:39:27;47626.72;;;-141.97;39.52
7018;BME280;3549;42.162;24.726;2023-04-23T10:41:54;47599.81;;;-141.97;38.92
7018;BME280;3549;42.162;24.726;2023-04-23T10:44:20;47644.00;;;-141.97;38.81
7018;BME280;3549;42.162;24.726;2023-04-23T10:47:06;47626.72;;;-141.97;38.00
7018;BME280;3549;42.162;24.726;2023-04-23T10:49:37;47546.00;;;-141.97;37.86
7018;BME280;3549;42.162;24.726;2023-04-23T10:52:13;47626.72;;;-141.97;38.26
7018;BME280;3549;42.162;24.726;2023-04-23T10:54:41;47624.78;;;-141.97;38.29
7018;BME280;3549;42.162;24.726;2023-04-23T10:57:07;47615.19;;;-141.97;38.84
7018;BME280;3549;42.162;24.726;2023-04-23T10:59:38;47480.63;;;-141.97;39.10
7018;BME280;3549;42.162;24.726;2023-04-23T11:02:09;47607.50;;;-141.97;38.23
7018;BME280;3549;42.162;24.726;2023-04-23T11:04:40;47638.25;;;-141.97;38.62
7018;BME280;3549;42.162;24.726;2023-04-23T11:07:10;47665.16;;;-141.97;38.60
7018;BME280;3549;42.162;24.726;2023-04-23T11:14:53;47584.44;;;-141.97;38.32
7018;BME280;3549;42.162;24.726;2023-04-23T11:20:19;47619.03;;;-141.97;38.32
7018;BME280;3549;42.162;24.726;2023-04-23T11:22:47;47640.16;;;-141.97;37.80
7018;BME280;3549;42.162;24.726;2023-04-23T11:27:50;47609.41;;;-141.97;39.06
7018;BME280;3549;42.162;24.726;2023-04-23T11:32:50;47601.72;;;-141.97;38.11
7018;BME280;3549;42.162;24.726;2023-04-23T11:35:17;47565.22;;;-141.97;36.85
7018;BME280;3549;42.162;24.726;2023-04-23T11:37:45;47592.13;;;-141.97;35.76
7018;BME280;3549;42.162;24.726;2023-04-23T11:40:14;47572.91;;;-141.97;35.02
7018;BME280;3549;42.162;24.726;2023-04-23T11:45:25;47595.97;;;-141.97;35.41
7018;BME280;3549;42.162;24.726;2023-04-23T11:47:52;47607.50;;;-141.97;34.74
7018;BME280;3549;42.162;24.726;2023-04-23T11:50:27;47580.59;;;-141.97;34.40
7018;BME280;3549;42.162;24.726;2023-04-23T11:52:55;47574.81;;;-141.97;32.77
7018;BME280;3549;42.162;24.726;2023-04-23T11:55:21;47699.75;;;-141.97;31.60
7018;BME280;3549;42.162;24.726;2023-04-23T11:57:51;47511.38;;;-141.97;30.52
7018;BME280;3549;42.162;24.726;2023-04-23T12:00:19;47398.00;;;-141.97;29.08
7018;BME280;3549;42.162;24.726;2023-04-23T12:05:26;47476.78;;;-141.97;27.77
7018;BME280;3549;42.162;24.726;2023-04-23T12:07:52;47357.63;;;-141.97;27.54
7018;BME280;3549;42.162;24.726;2023-04-23T12:10:19;47488.31;;;-141.97;27.23
7018;BME280;3549;42.162;24.726;2023-04-23T12:12:51;47484.47;;;-141.97;27.69
7018;BME280;3549;42.162;24.726;2023-04-23T12:15:17;47398.00;;;-141.97;27.17
7018;BME280;3549;42.162;24.726;2023-04-23T12:17:47;47363.41;;;-141.97;26.73
7018;BME280;3549;42.162;24.726;2023-04-23T12:20:18;47465.25;;;-141.97;27.28
7018;BME280;3549;42.162;24.726;2023-04-23T12:22:44;47457.56;;;-141.97;27.82
7018;BME280;3549;42.162;24.726;2023-04-23T12:25:09;47515.22;;;-141.97;29.68
7018;BME280;3549;42.162;24.726;2023-04-23T12:27:39;47592.13;;;-141.97;30.77
7018;BME280;3549;42.162;24.726;2023-04-23T12:30:06;47757.41;;;-141.97;29.46
7018;BME280;3549;42.162;24.726;2023-04-23T12:32:32;47538.28;;;-141.97;28.85
7018;BME280;3549;42.162;24.726;2023-04-23T12:34:58;47524.84;;;-141.97;28.55
7018;BME280;3549;42.162;24.726;2023-04-23T12:37:29;47472.94;;;-141.97;27.81
7018;BME280;3549;42.162;24.726;2023-04-23T12:39:55;47515.22;;;-141.97;28.17
7018;BME280;3549;42.162;24.726;2023-04-23T12:42:24;47392.22;;;-141.97;28.15
7018;BME280;3549;42.162;24.726;2023-04-23T12:44:50;47511.38;;;-141.97;28.13
7018;BME280;3549;42.162;24.726;2023-04-23T12:47:16;47559.44;;;-141.97;28.13
7018;BME280;3549;42.162;24.726;2023-04-23T12:49:44;47499.84;;;-141.97;28.54
7018;BME280;3549;42.162;24.726;2023-04-23T12:52:10;47711.28;;;-141.97;27.57
7018;BME280;3549;42.162;24.726;2023-04-23T12:54:38;47494.09;;;-141.97;27.36
7018;BME280;3549;42.162;24.726;2023-04-23T12:57:06;47651.69;;;-141.97;27.37
7018;BME280;3549;42.162;24.726;2023-04-23T12:59:32;47471.03;;;-141.97;26.48
7018;BME280;3549;42.162;24.726;2023-04-23T13:01:58;47382.63;;;-141.97;26.18
7018;BME280;3549;42.162;24.726;2023-04-23T13:04:28;47471.03;;;-141.97;26.00
7018;BME280;3549;42.162;24.726;2023-04-23T13:06:53;47490.25;;;-141.97;25.97
7018;BME280;3549;42.162;24.726;2023-04-23T13:09:19;47457.56;;;-141.97;26.53
7018;BME280;3549;42.162;24.726;2023-04-23T13:11:46;47755.50;;;-141.97;27.49